sensor_id;sensor_type;location;lat;lon;timestamp;P1;durP1;ratioP1;P2;durP2;ratioP2
59938;SDS011;45801;51.810;19.444;2023-05-16T00:01:15;10.70;;;7.90;;
59938;SDS011;45801;51.810;19.444;2023-05-16T00:03:42;10.50;;;7.20;;
59938;SDS011;45801;51.810;19.444;2023-05-16T00:06:09;10.10;;;7.70;;
59938;SDS011;45801;51.810;19.444;2023-05-16T00:08:35;11.10;;;6.90;;
59938;SDS011;45801;51.810;19.444;2023-05-16T00:11:01;10.80;;;6.80;;
59938;SDS011;45801;51.810;19.444;2023-05-16T00:13:28;9.60;;;6.90;;
59938;SDS011;45801;51.810;19.444;2023-05-16T00:15:55;10.40;;;7.60;;
59938;SDS011;45801;51.810;19.444;2023-05-16T00:18:22;10.00;;;6.60;;
59938;SDS011;45801;51.810;19.444;2023-05-16T00:20:48;10.20;;;6.80;;
59938;SDS011;45801;51.810;19.444;2023-05-16T00:23:17;9.40;;;6.60;;
59938;SDS011;45801;51.810;19.444;2023-05-16T00:25:43;9.60;;;7.00;;
59938;SDS011;45801;51.810;19.444;2023-05-16T00:28:11;10.00;;;7.00;;
59938;SDS011;45801;51.810;19.444;2023-05-16T00:30:37;9.50;;;7.30;;
59938;SDS011;45801;51.810;19.444;2023-05-16T00:33:04;10.20;;;7.90;;
59938;SDS011;45801;51.810;19.444;2023-05-16T00:35:30;10.60;;;7.70;;
59938;SDS011;45801;51.810;19.444;2023-05-16T00:37:57;9.80;;;7.20;;
59938;SDS011;45801;51.810;19.444;2023-05-16T00:40:24;9.80;;;7.30;;
59938;SDS011;45801;51.810;19.444;2023-05-16T00:42:50;12.90;;;7.70;;
59938;SDS011;45801;51.810;19.444;2023-05-16T00:45:17;11.30;;;7.60;;
59938;SDS011;45801;51.810;19.444;2023-05-16T00:47:44;12.40;;;7.60;;
59938;SDS011;45801;51.810;19.444;2023-05-16T00:50:10;11.40;;;8.40;;
59938;SDS011;45801;51.810;19.444;2023-05-16T00:52:37;12.10;;;9.10;;
59938;SDS011;45801;51.810;19.444;2023-05-16T00:55:04;11.00;;;8.70;;
59938;SDS011;45801;51.810;19.444;2023-05-16T00:57:31;12.60;;;8.80;;
59938;SDS011;45801;51.810;19.444;2023-05-16T00:59:58;13.00;;;9.30;;
59938;SDS011;45801;51.810;19.444;2023-05-16T01:02:24;13.20;;;9.00;;
59938;SDS011;45801;51.810;19.444;2023-05-16T01:04:53;14.50;;;9.70;;
59938;SDS011;45801;51.810;19.444;2023-05-16T01:07:20;11.30;;;8.60;;
59938;SDS011;45801;51.810;19.444;2023-05-16T01:09:47;13.30;;;8.90;;
59938;SDS011;45801;51.810;19.444;2023-05-16T01:17:44;11.80;;;9.00;;
59938;SDS011;45801;51.810;19.444;2023-05-16T01:28:14;12.40;;;8.80;;
59938;SDS011;45801;51.810;19.444;2023-05-16T01:30:42;11.40;;;7.80;;
59938;SDS011;45801;51.810;19.444;2023-05-16T01:33:09;11.00;;;8.60;;
59938;SDS011;45801;51.810;19.444;2023-05-16T01:35:37;11.80;;;9.00;;
59938;SDS011;45801;51.810;19.444;2023-05-16T01:41:24;11.70;;;8.60;;
59938;SDS011;45801;51.810;19.444;2023-05-16T01:43:41;12.80;;;8.90;;
59938;SDS011;45801;51.810;19.444;2023-05-16T01:46:13;12.60;;;8.90;;
59938;SDS011;45801;51.810;19.444;2023-05-16T01:48:43;12.60;;;9.20;;
59938;SDS011;45801;51.810;19.444;2023-05-16T01:51:20;12.70;;;9.20;;
59938;SDS011;45801;51.810;19.444;2023-05-16T01:53:49;12.70;;;8.70;;
59938;SDS011;45801;51.810;19.444;2023-05-16T01:56:17;12.90;;;9.10;;
59938;SDS011;45801;51.810;19.444;2023-05-16T01:58:47;10.40;;;8.70;;
59938;SDS011;45801;51.810;19.444;2023-05-16T02:01:17;13.00;;;9.60;;
59938;SDS011;45801;51.810;19.444;2023-05-16T02:03:44;14.00;;;8.70;;
59938;SDS011;45801;51.810;19.444;2023-05-16T02:06:10;11.40;;;8.80;;
59938;SDS011;45801;51.810;19.444;2023-05-16T02:08:37;11.00;;;8.00;;
59938;SDS011;45801;51.810;19.444;2023-05-16T02:11:03;12.20;;;8.90;;
59938;SDS011;45801;51.810;19.444;2023-05-16T02:13:29;12.50;;;10.00;;
59938;SDS011;45801;51.810;19.444;2023-05-16T02:15:56;13.10;;;9.30;;
59938;SDS011;45801;51.810;19.444;2023-05-16T02:18:23;12.90;;;9.00;;
59938;SDS011;45801;51.810;19.444;2023-05-16T02:20:49;14.00;;;9.70;;
59938;SDS011;45801;51.810;19.444;2023-05-16T02:23:16;11.90;;;9.60;;
59938;SDS011;45801;51.810;19.444;2023-05-16T02:25:42;12.40;;;9.70;;
59938;SDS011;45801;51.810;19.444;2023-05-16T02:28:09;12.90;;;9.10;;
59938;SDS011;45801;51.810;19.444;2023-05-16T02:30:35;12.60;;;9.20;;
59938;SDS011;45801;51.810;19.444;2023-05-16T02:33:02;12.80;;;9.50;;
59938;SDS011;45801;51.810;19.444;2023-05-16T02:35:28;12.60;;;9.60;;
59938;SDS011;45801;51.810;19.444;2023-05-16T02:37:55;13.10;;;9.60;;
59938;SDS011;45801;51.810;19.444;2023-05-16T02:40:22;11.40;;;9.00;;
59938;SDS011;45801;51.810;19.444;2023-05-16T02:42:48;12.70;;;9.80;;
59938;SDS011;45801;51.810;19.444;2023-05-16T02:45:15;11.40;;;9.50;;
59938;SDS011;45801;51.810;19.444;2023-05-16T02:47:41;12.10;;;8.80;;
59938;SDS011;45801;51.810;19.444;2023-05-16T02:50:08;13.10;;;9.70;;
59938;SDS011;45801;51.810;19.444;2023-05-16T02:52:35;13.10;;;9.70;;
59938;SDS011;45801;51.810;19.444;2023-05-16T02:55:01;13.40;;;9.50;;
59938;SDS011;45801;51.810;19.444;2023-05-16T02:57:27;11.60;;;9.00;;
59938;SDS011;45801;51.810;19.444;2023-05-16T02:59:54;11.80;;;9.40;;
59938;SDS011;45801;51.810;19.444;2023-05-16T03:02:20;14.00;;;9.30;;
59938;SDS011;45801;51.810;19.444;2023-05-16T03:04:47;11.20;;;8.20;;
59938;SDS011;45801;51.810;19.444;2023-05-16T03:07:13;11.80;;;8.80;;
59938;SDS011;45801;51.810;19.444;2023-05-16T03:09:40;11.90;;;9.40;;
59938;SDS011;45801;51.810;19.444;2023-05-16T03:12:07;13.00;;;9.10;;
59938;SDS011;45801;51.810;19.444;2023-05-16T03:14:33;12.70;;;9.70;;
59938;SDS011;45801;51.810;19.444;2023-05-16T03:17:00;12.80;;;9.80;;
59938;SDS011;45801;51.810;19.444;2023-05-16T03:19:26;12.40;;;9.20;;
59938;SDS011;45801;51.810;19.444;2023-05-16T03:21:53;12.90;;;9.00;;
59938;SDS011;45801;51.810;19.444;2023-05-16T03:24:19;13.80;;;10.40;;
59938;SDS011;45801;51.810;19.444;2023-05-16T03:26:48;12.00;;;9.10;;
59938;SDS011;45801;51.810;19.444;2023-05-16T03:29:14;11.70;;;8.80;;
59938;SDS011;45801;51.810;19.444;2023-05-16T03:31:42;12.40;;;9.10;;
59938;SDS011;45801;51.810;19.444;2023-05-16T03:34:08;11.60;;;9.30;;
59938;SDS011;45801;51.810;19.444;2023-05-16T03:36:35;13.60;;;9.50;;
59938;SDS011;45801;51.810;19.444;2023-05-16T03:39:01;12.40;;;10.30;;
59938;SDS011;45801;51.810;19.444;2023-05-16T03:41:28;11.90;;;9.50;;
59938;SDS011;45801;51.810;19.444;2023-05-16T03:43:54;12.60;;;10.20;;
59938;SDS011;45801;51.810;19.444;2023-05-16T03:46:21;12.10;;;9.70;;
59938;SDS011;45801;51.810;19.444;2023-05-16T03:48:47;12.30;;;9.90;;
59938;SDS011;45801;51.810;19.444;2023-05-16T03:51:14;13.40;;;9.60;;
59938;SDS011;45801;51.810;19.444;2023-05-16T03:53:40;15.30;;;10.10;;
59938;SDS011;45801;51.810;19.444;2023-05-16T03:56:07;12.80;;;9.60;;
59938;SDS011;45801;51.810;19.444;2023-05-16T03:58:33;13.00;;;10.00;;
59938;SDS011;45801;51.810;19.444;2023-05-16T04:01:00;13.70;;;10.50;;
59938;SDS011;45801;51.810;19.444;2023-05-16T04:03:26;13.60;;;11.30;;
59938;SDS011;45801;51.810;19.444;2023-05-16T04:05:54;12.60;;;9.40;;
59938;SDS011;45801;51.810;19.444;2023-05-16T04:08:21;14.50;;;10.10;;
59938;SDS011;45801;51.810;19.444;2023-05-16T04:10:48;13.80;;;10.10;;
59938;SDS011;45801;51.810;19.444;2023-05-16T04:13:15;14.70;;;10.20;;
59938;SDS011;45801;51.810;19.444;2023-05-16T04:15:41;11.90;;;10.00;;
59938;SDS011;45801;51.810;19.444;2023-05-16T04:18:08;15.90;;;11.50;;
59938;SDS011;45801;51.810;19.444;2023-05-16T04:20:35;13.10;;;10.20;;
59938;SDS011;45801;51.810;19.444;2023-05-16T04:23:02;12.30;;;10.10;;
59938;SDS011;45801;51.810;19.444;2023-05-16T04:25:28;14.40;;;11.00;;
59938;SDS011;45801;51.810;19.444;2023-05-16T04:27:57;13.70;;;11.50;;
59938;SDS011;45801;51.810;19.444;2023-05-16T04:30:23;15.10;;;10.40;;
59938;SDS011;45801;51.810;19.444;2023-05-16T04:32:51;14.20;;;11.40;;
59938;SDS011;45801;51.810;19.444;2023-05-16T04:35:17;14.70;;;11.20;;
59938;SDS011;45801;51.810;19.444;2023-05-16T04:37:45;12.90;;;11.00;;
59938;SDS011;45801;51.810;19.444;2023-05-16T04:40:12;14.60;;;11.90;;
59938;SDS011;45801;51.810;19.444;2023-05-16T04:42:39;15.50;;;12.00;;
59938;SDS011;45801;51.810;19.444;2023-05-16T04:45:06;13.00;;;10.90;;
59938;SDS011;45801;51.810;19.444;2023-05-16T04:47:36;14.20;;;11.30;;
59938;SDS011;45801;51.810;19.444;2023-05-16T04:50:03;16.40;;;11.70;;
59938;SDS011;45801;51.810;19.444;2023-05-16T04:52:31;14.10;;;9.90;;
59938;SDS011;45801;51.810;19.444;2023-05-16T04:54:58;12.40;;;10.00;;
59938;SDS011;45801;51.810;19.444;2023-05-16T04:57:25;13.60;;;11.00;;
59938;SDS011;45801;51.810;19.444;2023-05-16T04:59:53;14.40;;;10.30;;
59938;SDS011;45801;51.810;19.444;2023-05-16T05:02:19;13.50;;;10.50;;
59938;SDS011;45801;51.810;19.444;2023-05-16T05:04:46;12.30;;;9.90;;
59938;SDS011;45801;51.810;19.444;2023-05-16T05:07:13;15.40;;;11.30;;
59938;SDS011;45801;51.810;19.444;2023-05-16T05:09:41;13.60;;;11.30;;
59938;SDS011;45801;51.810;19.444;2023-05-16T05:12:08;12.80;;;10.30;;
59938;SDS011;45801;51.810;19.444;2023-05-16T05:14:36;13.50;;;11.20;;
59938;SDS011;45801;51.810;19.444;2023-05-16T05:17:03;13.40;;;10.50;;
59938;SDS011;45801;51.810;19.444;2023-05-16T05:19:29;13.90;;;10.20;;
59938;SDS011;45801;51.810;19.444;2023-05-16T05:21:56;12.80;;;9.90;;
59938;SDS011;45801;51.810;19.444;2023-05-16T05:24:23;13.50;;;9.80;;
59938;SDS011;45801;51.810;19.444;2023-05-16T05:26:50;14.20;;;10.50;;
59938;SDS011;45801;51.810;19.444;2023-05-16T05:29:17;14.40;;;11.00;;
59938;SDS011;45801;51.810;19.444;2023-05-16T05:31:43;14.80;;;10.40;;
59938;SDS011;45801;51.810;19.444;2023-05-16T05:34:10;13.10;;;10.50;;
59938;SDS011;45801;51.810;19.444;2023-05-16T05:36:36;15.30;;;11.30;;
59938;SDS011;45801;51.810;19.444;2023-05-16T05:39:03;12.10;;;10.30;;
59938;SDS011;45801;51.810;19.444;2023-05-16T05:41:29;12.10;;;10.20;;
59938;SDS011;45801;51.810;19.444;2023-05-16T05:43:56;12.60;;;10.30;;
59938;SDS011;45801;51.810;19.444;2023-05-16T05:46:23;13.80;;;11.30;;
59938;SDS011;45801;51.810;19.444;2023-05-16T05:48:49;13.40;;;10.90;;
59938;SDS011;45801;51.810;19.444;2023-05-16T05:51:16;15.80;;;12.60;;
59938;SDS011;45801;51.810;19.444;2023-05-16T05:53:44;13.10;;;11.70;;
59938;SDS011;45801;51.810;19.444;2023-05-16T05:56:10;13.90;;;12.30;;
59938;SDS011;45801;51.810;19.444;2023-05-16T05:58:37;13.90;;;12.40;;
59938;SDS011;45801;51.810;19.444;2023-05-16T06:01:07;15.30;;;13.00;;
59938;SDS011;45801;51.810;19.444;2023-05-16T06:03:33;14.90;;;13.40;;
59938;SDS011;45801;51.810;19.444;2023-05-16T06:06:00;15.80;;;13.80;;
59938;SDS011;45801;51.810;19.444;2023-05-16T06:08:26;15.00;;;13.20;;
59938;SDS011;45801;51.810;19.444;2023-05-16T06:10:53;15.70;;;14.10;;
59938;SDS011;45801;51.810;19.444;2023-05-16T06:13:19;15.10;;;13.40;;
59938;SDS011;45801;51.810;19.444;2023-05-16T06:15:49;13.50;;;12.10;;
59938;SDS011;45801;51.810;19.444;2023-05-16T06:18:19;14.00;;;12.60;;
59938;SDS011;45801;51.810;19.444;2023-05-16T06:20:46;15.00;;;12.60;;
59938;SDS011;45801;51.810;19.444;2023-05-16T06:23:12;15.00;;;12.40;;
59938;SDS011;45801;51.810;19.444;2023-05-16T06:25:39;14.40;;;11.60;;
59938;SDS011;45801;51.810;19.444;2023-05-16T06:28:05;13.00;;;10.90;;
59938;SDS011;45801;51.810;19.444;2023-05-16T06:30:31;12.10;;;10.20;;
59938;SDS011;45801;51.810;19.444;2023-05-16T06:32:58;12.60;;;9.90;;
59938;SDS011;45801;51.810;19.444;2023-05-16T06:35:25;13.20;;;10.20;;
59938;SDS011;45801;51.810;19.444;2023-05-16T06:37:52;10.80;;;8.40;;
59938;SDS011;45801;51.810;19.444;2023-05-16T06:40:18;12.20;;;8.80;;
59938;SDS011;45801;51.810;19.444;2023-05-16T06:42:44;12.90;;;8.30;;
59938;SDS011;45801;51.810;19.444;2023-05-16T06:45:11;10.60;;;8.20;;
59938;SDS011;45801;51.810;19.444;2023-05-16T06:47:37;9.60;;;8.10;;
59938;SDS011;45801;51.810;19.444;2023-05-16T06:50:04;10.50;;;8.10;;
59938;SDS011;45801;51.810;19.444;2023-05-16T06:52:31;11.70;;;8.90;;
59938;SDS011;45801;51.810;19.444;2023-05-16T06:54:57;10.90;;;9.30;;
59938;SDS011;45801;51.810;19.444;2023-05-16T06:57:24;13.90;;;10.00;;
59938;SDS011;45801;51.810;19.444;2023-05-16T06:59:51;11.90;;;9.70;;
59938;SDS011;45801;51.810;19.444;2023-05-16T07:02:17;11.40;;;8.40;;
59938;SDS011;45801;51.810;19.444;2023-05-16T07:04:44;12.30;;;9.00;;
59938;SDS011;45801;51.810;19.444;2023-05-16T07:07:10;10.80;;;8.60;;
59938;SDS011;45801;51.810;19.444;2023-05-16T07:09:37;10.60;;;8.40;;
59938;SDS011;45801;51.810;19.444;2023-05-16T07:12:04;13.40;;;6.80;;
59938;SDS011;45801;51.810;19.444;2023-05-16T07:14:30;9.40;;;6.50;;
59938;SDS011;45801;51.810;19.444;2023-05-16T07:16:57;8.70;;;5.90;;
59938;SDS011;45801;51.810;19.444;2023-05-16T07:19:23;8.00;;;5.30;;
59938;SDS011;45801;51.810;19.444;2023-05-16T07:21:50;7.90;;;5.40;;
59938;SDS011;45801;51.810;19.444;2023-05-16T07:24:16;8.10;;;4.80;;
59938;SDS011;45801;51.810;19.444;2023-05-16T07:26:43;7.30;;;4.80;;
59938;SDS011;45801;51.810;19.444;2023-05-16T07:29:09;7.80;;;4.80;;
59938;SDS011;45801;51.810;19.444;2023-05-16T07:31:36;7.80;;;4.40;;
59938;SDS011;45801;51.810;19.444;2023-05-16T07:34:02;8.00;;;4.50;;
59938;SDS011;45801;51.810;19.444;2023-05-16T07:36:28;7.30;;;4.30;;
59938;SDS011;45801;51.810;19.444;2023-05-16T07:38:55;6.90;;;4.20;;
59938;SDS011;45801;51.810;19.444;2023-05-16T07:41:21;7.20;;;4.20;;
59938;SDS011;45801;51.810;19.444;2023-05-16T07:43:48;7.60;;;4.30;;
59938;SDS011;45801;51.810;19.444;2023-05-16T07:46:14;7.00;;;4.30;;
59938;SDS011;45801;51.810;19.444;2023-05-16T07:48:41;7.30;;;4.10;;
59938;SDS011;45801;51.810;19.444;2023-05-16T07:51:07;7.70;;;3.60;;
59938;SDS011;45801;51.810;19.444;2023-05-16T07:53:33;6.70;;;3.50;;
59938;SDS011;45801;51.810;19.444;2023-05-16T07:56:00;6.70;;;3.80;;
59938;SDS011;45801;51.810;19.444;2023-05-16T07:58:26;6.50;;;3.80;;
59938;SDS011;45801;51.810;19.444;2023-05-16T08:00:53;8.90;;;4.10;;
59938;SDS011;45801;51.810;19.444;2023-05-16T08:03:20;6.50;;;4.00;;
59938;SDS011;45801;51.810;19.444;2023-05-16T08:05:47;7.20;;;3.60;;
59938;SDS011;45801;51.810;19.444;2023-05-16T08:08:14;8.00;;;3.80;;
59938;SDS011;45801;51.810;19.444;2023-05-16T08:10:40;5.60;;;3.10;;
59938;SDS011;45801;51.810;19.444;2023-05-16T08:13:07;7.70;;;3.30;;
59938;SDS011;45801;51.810;19.444;2023-05-16T08:15:33;6.00;;;3.10;;
59938;SDS011;45801;51.810;19.444;2023-05-16T08:18:01;6.00;;;3.10;;
59938;SDS011;45801;51.810;19.444;2023-05-16T08:20:27;6.80;;;3.50;;
59938;SDS011;45801;51.810;19.444;2023-05-16T08:22:54;5.20;;;2.80;;
59938;SDS011;45801;51.810;19.444;2023-05-16T08:25:20;6.70;;;3.80;;
59938;SDS011;45801;51.810;19.444;2023-05-16T08:27:47;7.10;;;3.60;;
59938;SDS011;45801;51.810;19.444;2023-05-16T08:30:16;8.10;;;3.70;;
59938;SDS011;45801;51.810;19.444;2023-05-16T08:32:42;6.20;;;3.30;;
59938;SDS011;45801;51.810;19.444;2023-05-16T08:35:09;7.20;;;3.30;;
59938;SDS011;45801;51.810;19.444;2023-05-16T08:37:36;6.30;;;2.90;;
59938;SDS011;45801;51.810;19.444;2023-05-16T08:40:03;7.60;;;3.10;;
59938;SDS011;45801;51.810;19.444;2023-05-16T08:42:32;5.60;;;3.00;;
59938;SDS011;45801;51.810;19.444;2023-05-16T08:44:59;5.40;;;2.70;;
59938;SDS011;45801;51.810;19.444;2023-05-16T08:47:25;7.00;;;3.50;;
59938;SDS011;45801;51.810;19.444;2023-05-16T08:49:55;5.70;;;3.00;;
59938;SDS011;45801;51.810;19.444;2023-05-16T08:52:25;6.30;;;2.90;;
59938;SDS011;45801;51.810;19.444;2023-05-16T08:54:56;6.10;;;2.60;;
59938;SDS011;45801;51.810;19.444;2023-05-16T08:57:26;6.80;;;2.60;;
59938;SDS011;45801;51.810;19.444;2023-05-16T08:59:55;5.50;;;2.90;;
59938;SDS011;45801;51.810;19.444;2023-05-16T09:02:22;7.10;;;2.90;;
59938;SDS011;45801;51.810;19.444;2023-05-16T09:04:49;5.30;;;2.50;;
59938;SDS011;45801;51.810;19.444;2023-05-16T09:07:16;5.70;;;2.50;;
59938;SDS011;45801;51.810;19.444;2023-05-16T09:09:43;5.70;;;2.50;;
59938;SDS011;45801;51.810;19.444;2023-05-16T09:12:09;7.70;;;2.40;;
59938;SDS011;45801;51.810;19.444;2023-05-16T09:14:36;5.50;;;2.40;;
59938;SDS011;45801;51.810;19.444;2023-05-16T09:17:06;5.60;;;2.40;;
59938;SDS011;45801;51.810;19.444;2023-05-16T09:19:37;6.40;;;2.50;;
59938;SDS011;45801;51.810;19.444;2023-05-16T09:22:06;5.20;;;2.20;;
59938;SDS011;45801;51.810;19.444;2023-05-16T09:24:38;7.50;;;2.80;;
59938;SDS011;45801;51.810;19.444;2023-05-16T09:27:12;6.20;;;2.50;;
59938;SDS011;45801;51.810;19.444;2023-05-16T09:29:39;5.30;;;2.10;;
59938;SDS011;45801;51.810;19.444;2023-05-16T09:32:13;4.10;;;2.00;;
59938;SDS011;45801;51.810;19.444;2023-05-16T09:34:45;4.10;;;1.80;;
59938;SDS011;45801;51.810;19.444;2023-05-16T09:37:14;5.10;;;2.20;;
59938;SDS011;45801;51.810;19.444;2023-05-16T09:39:44;4.20;;;2.40;;
59938;SDS011;45801;51.810;19.444;2023-05-16T09:42:15;5.40;;;2.10;;
59938;SDS011;45801;51.810;19.444;2023-05-16T09:44:47;4.80;;;2.00;;
59938;SDS011;45801;51.810;19.444;2023-05-16T09:47:15;4.50;;;1.80;;
59938;SDS011;45801;51.810;19.444;2023-05-16T09:49:43;4.40;;;2.00;;
59938;SDS011;45801;51.810;19.444;2023-05-16T09:52:10;5.10;;;1.90;;
59938;SDS011;45801;51.810;19.444;2023-05-16T09:54:37;5.00;;;2.00;;
59938;SDS011;45801;51.810;19.444;2023-05-16T09:57:04;4.90;;;2.10;;
59938;SDS011;45801;51.810;19.444;2023-05-16T09:59:34;4.50;;;1.90;;
59938;SDS011;45801;51.810;19.444;2023-05-16T10:02:05;4.90;;;2.20;;
59938;SDS011;45801;51.810;19.444;2023-05-16T10:04:35;6.50;;;2.30;;
59938;SDS011;45801;51.810;19.444;2023-05-16T10:07:02;4.10;;;1.90;;
59938;SDS011;45801;51.810;19.444;2023-05-16T10:09:31;5.10;;;2.30;;
59938;SDS011;45801;51.810;19.444;2023-05-16T10:12:01;4.20;;;2.10;;
59938;SDS011;45801;51.810;19.444;2023-05-16T10:14:40;5.60;;;2.10;;
59938;SDS011;45801;51.810;19.444;2023-05-16T10:17:11;5.50;;;2.00;;
59938;SDS011;45801;51.810;19.444;2023-05-16T10:19:41;6.60;;;2.20;;
59938;SDS011;45801;51.810;19.444;2023-05-16T10:22:08;7.10;;;2.60;;
59938;SDS011;45801;51.810;19.444;2023-05-16T10:24:45;5.60;;;2.50;;
59938;SDS011;45801;51.810;19.444;2023-05-16T10:27:16;5.90;;;2.30;;
59938;SDS011;45801;51.810;19.444;2023-05-16T10:29:43;5.40;;;2.40;;
59938;SDS011;45801;51.810;19.444;2023-05-16T10:32:10;8.00;;;2.40;;
59938;SDS011;45801;51.810;19.444;2023-05-16T10:34:38;4.80;;;2.20;;
59938;SDS011;45801;51.810;19.444;2023-05-16T10:37:06;7.00;;;2.60;;
59938;SDS011;45801;51.810;19.444;2023-05-16T10:39:33;7.10;;;2.80;;
59938;SDS011;45801;51.810;19.444;2023-05-16T10:42:01;4.80;;;2.10;;
59938;SDS011;45801;51.810;19.444;2023-05-16T10:44:30;4.40;;;2.20;;
59938;SDS011;45801;51.810;19.444;2023-05-16T10:46:59;6.40;;;2.40;;
59938;SDS011;45801;51.810;19.444;2023-05-16T10:49:26;6.40;;;2.40;;
59938;SDS011;45801;51.810;19.444;2023-05-16T10:52:09;5.80;;;2.40;;
59938;SDS011;45801;51.810;19.444;2023-05-16T10:54:40;4.80;;;2.30;;
59938;SDS011;45801;51.810;19.444;2023-05-16T10:57:08;6.00;;;2.30;;
59938;SDS011;45801;51.810;19.444;2023-05-16T10:59:43;5.20;;;2.50;;
59938;SDS011;45801;51.810;19.444;2023-05-16T11:05:01;4.30;;;2.30;;
59938;SDS011;45801;51.810;19.444;2023-05-16T11:07:36;5.60;;;2.30;;
59938;SDS011;45801;51.810;19.444;2023-05-16T11:15:23;5.60;;;2.60;;
59938;SDS011;45801;51.810;19.444;2023-05-16T11:18:05;5.40;;;2.20;;
59938;SDS011;45801;51.810;19.444;2023-05-16T11:20:39;4.10;;;2.10;;
59938;SDS011;45801;51.810;19.444;2023-05-16T11:25:44;6.70;;;2.60;;
59938;SDS011;45801;51.810;19.444;2023-05-16T11:28:12;9.60;;;2.70;;
59938;SDS011;45801;51.810;19.444;2023-05-16T11:30:49;6.50;;;2.60;;
59938;SDS011;45801;51.810;19.444;2023-05-16T11:33:20;4.90;;;2.50;;
59938;SDS011;45801;51.810;19.444;2023-05-16T11:38:33;5.70;;;2.70;;
59938;SDS011;45801;51.810;19.444;2023-05-16T11:41:01;6.60;;;2.80;;
59938;SDS011;45801;51.810;19.444;2023-05-16T11:43:35;5.40;;;2.60;;
59938;SDS011;45801;51.810;19.444;2023-05-16T11:46:03;5.50;;;2.50;;
59938;SDS011;45801;51.810;19.444;2023-05-16T11:48:29;4.30;;;2.10;;
59938;SDS011;45801;51.810;19.444;2023-05-16T11:50:56;7.60;;;3.00;;
59938;SDS011;45801;51.810;19.444;2023-05-16T11:53:23;8.10;;;3.00;;
59938;SDS011;45801;51.810;19.444;2023-05-16T11:55:49;5.00;;;2.40;;
59938;SDS011;45801;51.810;19.444;2023-05-16T11:58:18;8.60;;;3.40;;
59938;SDS011;45801;51.810;19.444;2023-05-16T12:00:49;4.60;;;2.10;;
59938;SDS011;45801;51.810;19.444;2023-05-16T12:03:16;5.50;;;2.30;;
59938;SDS011;45801;51.810;19.444;2023-05-16T12:05:53;5.50;;;2.20;;
59938;SDS011;45801;51.810;19.444;2023-05-16T12:08:22;5.90;;;2.50;;
59938;SDS011;45801;51.810;19.444;2023-05-16T12:10:50;5.90;;;2.80;;
59938;SDS011;45801;51.810;19.444;2023-05-16T12:13:19;5.40;;;2.80;;
59938;SDS011;45801;51.810;19.444;2023-05-16T12:15:47;4.70;;;2.20;;
59938;SDS011;45801;51.810;19.444;2023-05-16T12:18:16;5.70;;;2.80;;
59938;SDS011;45801;51.810;19.444;2023-05-16T12:20:43;7.20;;;2.70;;
59938;SDS011;45801;51.810;19.444;2023-05-16T12:23:10;5.50;;;2.40;;
59938;SDS011;45801;51.810;19.444;2023-05-16T12:25:38;4.80;;;2.50;;
59938;SDS011;45801;51.810;19.444;2023-05-16T12:28:12;6.90;;;2.80;;
59938;SDS011;45801;51.810;19.444;2023-05-16T12:30:40;5.30;;;2.70;;
59938;SDS011;45801;51.810;19.444;2023-05-16T12:33:09;5.60;;;2.60;;
59938;SDS011;45801;51.810;19.444;2023-05-16T12:35:38;5.90;;;2.80;;
59938;SDS011;45801;51.810;19.444;2023-05-16T12:38:07;5.10;;;2.40;;
59938;SDS011;45801;51.810;19.444;2023-05-16T12:40:38;7.10;;;2.70;;
59938;SDS011;45801;51.810;19.444;2023-05-16T12:45:48;4.80;;;2.40;;
59938;SDS011;45801;51.810;19.444;2023-05-16T12:48:16;4.30;;;2.40;;
59938;SDS011;45801;51.810;19.444;2023-05-16T12:50:42;6.10;;;2.70;;
59938;SDS011;45801;51.810;19.444;2023-05-16T12:53:12;7.00;;;2.80;;
59938;SDS011;45801;51.810;19.444;2023-05-16T12:55:39;6.30;;;2.70;;
59938;SDS011;45801;51.810;19.444;2023-05-16T12:58:06;8.30;;;2.70;;
59938;SDS011;45801;51.810;19.444;2023-05-16T13:00:34;7.70;;;2.70;;
59938;SDS011;45801;51.810;19.444;2023-05-16T13:03:02;6.90;;;2.90;;
59938;SDS011;45801;51.810;19.444;2023-05-16T13:05:30;5.90;;;2.40;;
59938;SDS011;45801;51.810;19.444;2023-05-16T13:07:57;7.30;;;2.90;;
59938;SDS011;45801;51.810;19.444;2023-05-16T13:10:23;5.90;;;3.00;;
59938;SDS011;45801;51.810;19.444;2023-05-16T13:12:51;6.20;;;2.80;;
59938;SDS011;45801;51.810;19.444;2023-05-16T13:15:18;6.20;;;2.90;;
59938;SDS011;45801;51.810;19.444;2023-05-16T13:17:45;5.40;;;2.70;;
59938;SDS011;45801;51.810;19.444;2023-05-16T13:20:13;6.80;;;3.40;;
59938;SDS011;45801;51.810;19.444;2023-05-16T13:22:41;6.60;;;3.00;;
59938;SDS011;45801;51.810;19.444;2023-05-16T13:25:09;7.30;;;3.30;;
59938;SDS011;45801;51.810;19.444;2023-05-16T13:27:36;6.10;;;2.90;;
59938;SDS011;45801;51.810;19.444;2023-05-16T13:30:02;6.50;;;3.20;;
59938;SDS011;45801;51.810;19.444;2023-05-16T13:32:30;5.10;;;2.40;;
59938;SDS011;45801;51.810;19.444;2023-05-16T13:34:58;7.20;;;2.90;;
59938;SDS011;45801;51.810;19.444;2023-05-16T13:37:25;5.90;;;2.80;;
59938;SDS011;45801;51.810;19.444;2023-05-16T13:39:53;5.50;;;2.70;;
59938;SDS011;45801;51.810;19.444;2023-05-16T13:42:22;6.60;;;2.80;;
59938;SDS011;45801;51.810;19.444;2023-05-16T13:44:49;6.40;;;2.80;;
59938;SDS011;45801;51.810;19.444;2023-05-16T13:47:16;6.50;;;3.10;;
59938;SDS011;45801;51.810;19.444;2023-05-16T13:49:43;5.70;;;2.50;;
59938;SDS011;45801;51.810;19.444;2023-05-16T13:52:10;7.60;;;3.10;;
59938;SDS011;45801;51.810;19.444;2023-05-16T13:54:36;6.00;;;2.50;;
59938;SDS011;45801;51.810;19.444;2023-05-16T13:57:04;5.60;;;2.50;;
59938;SDS011;45801;51.810;19.444;2023-05-16T13:59:32;7.20;;;3.00;;
59938;SDS011;45801;51.810;19.444;2023-05-16T14:01:58;6.10;;;2.70;;
59938;SDS011;45801;51.810;19.444;2023-05-16T14:04:25;7.40;;;2.70;;
59938;SDS011;45801;51.810;19.444;2023-05-16T14:06:51;5.50;;;3.20;;
59938;SDS011;45801;51.810;19.444;2023-05-16T14:09:18;5.40;;;2.70;;
59938;SDS011;45801;51.810;19.444;2023-05-16T14:11:45;5.60;;;2.80;;
59938;SDS011;45801;51.810;19.444;2023-05-16T14:14:13;6.10;;;2.90;;
59938;SDS011;45801;51.810;19.444;2023-05-16T14:16:40;7.00;;;3.30;;
59938;SDS011;45801;51.810;19.444;2023-05-16T14:19:11;5.20;;;2.70;;
59938;SDS011;45801;51.810;19.444;2023-05-16T14:21:38;6.70;;;2.90;;
59938;SDS011;45801;51.810;19.444;2023-05-16T14:24:05;7.10;;;3.10;;
59938;SDS011;45801;51.810;19.444;2023-05-16T14:26:32;7.90;;;3.20;;
59938;SDS011;45801;51.810;19.444;2023-05-16T14:29:11;7.40;;;3.00;;
59938;SDS011;45801;51.810;19.444;2023-05-16T14:31:39;6.10;;;3.10;;
59938;SDS011;45801;51.810;19.444;2023-05-16T14:34:06;6.40;;;3.30;;
59938;SDS011;45801;51.810;19.444;2023-05-16T14:36:33;5.10;;;2.60;;
59938;SDS011;45801;51.810;19.444;2023-05-16T14:39:00;6.10;;;2.90;;
59938;SDS011;45801;51.810;19.444;2023-05-16T14:41:26;5.30;;;2.90;;
59938;SDS011;45801;51.810;19.444;2023-05-16T14:43:53;6.50;;;3.30;;
59938;SDS011;45801;51.810;19.444;2023-05-16T14:46:21;5.30;;;2.50;;
59938;SDS011;45801;51.810;19.444;2023-05-16T14:48:47;5.80;;;2.90;;
59938;SDS011;45801;51.810;19.444;2023-05-16T14:51:15;5.20;;;2.90;;
59938;SDS011;45801;51.810;19.444;2023-05-16T14:53:44;6.30;;;3.20;;
59938;SDS011;45801;51.810;19.444;2023-05-16T14:56:10;5.90;;;3.20;;
59938;SDS011;45801;51.810;19.444;2023-05-16T14:58:38;6.00;;;3.00;;
59938;SDS011;45801;51.810;19.444;2023-05-16T15:01:04;6.30;;;3.30;;